sensor_id;sensor_type;location;lat;lon;timestamp;P1;durP1;ratioP1;P2;durP2;ratioP2
53833;SDS011;39735;51.432;5.482;2023-09-12T00:01:57;31.70;;;20.80;;
53833;SDS011;39735;51.432;5.482;2023-09-12T00:04:22;50.00;;;19.80;;
53833;SDS011;39735;51.432;5.482;2023-09-12T00:06:47;39.95;;;18.92;;
53833;SDS011;39735;51.432;5.482;2023-09-12T00:09:12;32.35;;;21.30;;
53833;SDS011;39735;51.432;5.482;2023-09-12T00:11:38;40.63;;;18.30;;
53833;SDS011;39735;51.432;5.482;2023-09-12T00:14:03;24.93;;;19.33;;
53833;SDS011;39735;51.432;5.482;2023-09-12T00:16:28;36.05;;;19.60;;
53833;SDS011;39735;51.432;5.482;2023-09-12T00:18:53;28.63;;;19.13;;
53833;SDS011;39735;51.432;5.482;2023-09-12T00:21:19;35.13;;;18.30;;
53833;SDS011;39735;51.432;5.482;2023-09-12T00:23:44;28.45;;;17.52;;
53833;SDS011;39735;51.432;5.482;2023-09-12T00:26:09;46.25;;;20.13;;
53833;SDS011;39735;51.432;5.482;2023-09-12T00:28:34;28.80;;;18.90;;
53833;SDS011;39735;51.432;5.482;2023-09-12T00:31:00;35.28;;;18.50;;
53833;SDS011;39735;51.432;5.482;2023-09-12T00:33:25;32.47;;;21.53;;
53833;SDS011;39735;51.432;5.482;2023-09-12T00:35:50;28.83;;;20.00;;
53833;SDS011;39735;51.432;5.482;2023-09-12T00:38:15;33.07;;;20.17;;
53833;SDS011;39735;51.432;5.482;2023-09-12T00:40:40;43.35;;;19.52;;
53833;SDS011;39735;51.432;5.482;2023-09-12T00:43:06;41.78;;;21.08;;
53833;SDS011;39735;51.432;5.482;2023-09-12T00:45:31;28.95;;;20.20;;
53833;SDS011;39735;51.432;5.482;2023-09-12T00:47:57;34.08;;;19.38;;
53833;SDS011;39735;51.432;5.482;2023-09-12T00:50:23;31.35;;;20.95;;
53833;SDS011;39735;51.432;5.482;2023-09-12T00:52:50;25.23;;;20.52;;
53833;SDS011;39735;51.432;5.482;2023-09-12T00:55:15;39.15;;;20.98;;
53833;SDS011;39735;51.432;5.482;2023-09-12T00:57:41;44.08;;;21.48;;
53833;SDS011;39735;51.432;5.482;2023-09-12T01:00:07;27.13;;;18.13;;
53833;SDS011;39735;51.432;5.482;2023-09-12T01:02:37;41.65;;;19.45;;
53833;SDS011;39735;51.432;5.482;2023-09-12T01:05:03;30.88;;;18.83;;
53833;SDS011;39735;51.432;5.482;2023-09-12T01:07:28;50.20;;;20.40;;
53833;SDS011;39735;51.432;5.482;2023-09-12T01:09:53;69.87;;;22.83;;
53833;SDS011;39735;51.432;5.482;2023-09-12T01:12:18;30.33;;;20.80;;
53833;SDS011;39735;51.432;5.482;2023-09-12T01:14:44;33.92;;;22.83;;
53833;SDS011;39735;51.432;5.482;2023-09-12T01:17:09;47.03;;;21.33;;
53833;SDS011;39735;51.432;5.482;2023-09-12T01:19:34;31.30;;;21.37;;
53833;SDS011;39735;51.432;5.482;2023-09-12T01:24:58;39.25;;;20.67;;
53833;SDS011;39735;51.432;5.482;2023-09-12T01:27:30;30.80;;;21.13;;
53833;SDS011;39735;51.432;5.482;2023-09-12T01:29:57;38.83;;;22.58;;
53833;SDS011;39735;51.432;5.482;2023-09-12T01:32:22;36.15;;;20.05;;
53833;SDS011;39735;51.432;5.482;2023-09-12T01:34:48;35.25;;;19.88;;
53833;SDS011;39735;51.432;5.482;2023-09-12T01:37:13;29.83;;;20.92;;
53833;SDS011;39735;51.432;5.482;2023-09-12T01:39:38;37.75;;;21.60;;
53833;SDS011;39735;51.432;5.482;2023-09-12T01:42:04;40.50;;;19.87;;
53833;SDS011;39735;51.432;5.482;2023-09-12T01:44:30;31.95;;;21.65;;
53833;SDS011;39735;51.432;5.482;2023-09-12T01:46:57;39.92;;;22.30;;
53833;SDS011;39735;51.432;5.482;2023-09-12T01:49:27;42.33;;;20.48;;
53833;SDS011;39735;51.432;5.482;2023-09-12T01:51:53;28.88;;;19.08;;
53833;SDS011;39735;51.432;5.482;2023-09-12T01:54:19;42.25;;;21.63;;
53833;SDS011;39735;51.432;5.482;2023-09-12T01:56:45;32.58;;;19.85;;
53833;SDS011;39735;51.432;5.482;2023-09-12T01:59:10;35.22;;;21.30;;
53833;SDS011;39735;51.432;5.482;2023-09-12T02:01:36;29.52;;;19.00;;
53833;SDS011;39735;51.432;5.482;2023-09-12T02:04:01;34.23;;;19.33;;
53833;SDS011;39735;51.432;5.482;2023-09-12T02:06:26;29.08;;;19.45;;
53833;SDS011;39735;51.432;5.482;2023-09-12T02:08:52;44.53;;;20.10;;
53833;SDS011;39735;51.432;5.482;2023-09-12T02:11:17;55.77;;;22.10;;
53833;SDS011;39735;51.432;5.482;2023-09-12T02:13:42;36.43;;;21.47;;
53833;SDS011;39735;51.432;5.482;2023-09-12T02:16:07;39.97;;;22.17;;
53833;SDS011;39735;51.432;5.482;2023-09-12T02:18:33;33.25;;;22.30;;
53833;SDS011;39735;51.432;5.482;2023-09-12T02:20:58;42.00;;;21.63;;
53833;SDS011;39735;51.432;5.482;2023-09-12T02:23:24;46.70;;;23.30;;
53833;SDS011;39735;51.432;5.482;2023-09-12T02:25:49;36.38;;;21.52;;
53833;SDS011;39735;51.432;5.482;2023-09-12T02:28:14;39.83;;;21.00;;
53833;SDS011;39735;51.432;5.482;2023-09-12T02:30:39;40.17;;;22.67;;
53833;SDS011;39735;51.432;5.482;2023-09-12T02:33:07;35.17;;;21.63;;
53833;SDS011;39735;51.432;5.482;2023-09-12T02:35:33;39.40;;;18.65;;
53833;SDS011;39735;51.432;5.482;2023-09-12T02:37:58;36.40;;;19.90;;
53833;SDS011;39735;51.432;5.482;2023-09-12T02:40:24;32.50;;;18.92;;
53833;SDS011;39735;51.432;5.482;2023-09-12T02:42:49;26.55;;;19.25;;
53833;SDS011;39735;51.432;5.482;2023-09-12T02:45:14;34.83;;;19.33;;
53833;SDS011;39735;51.432;5.482;2023-09-12T02:47:39;49.28;;;21.20;;
53833;SDS011;39735;51.432;5.482;2023-09-12T02:50:05;49.92;;;22.52;;
53833;SDS011;39735;51.432;5.482;2023-09-12T02:52:30;45.88;;;21.80;;
53833;SDS011;39735;51.432;5.482;2023-09-12T02:54:55;45.97;;;23.27;;
53833;SDS011;39735;51.432;5.482;2023-09-12T02:57:21;29.00;;;21.57;;
53833;SDS011;39735;51.432;5.482;2023-09-12T02:59:46;32.05;;;21.67;;
53833;SDS011;39735;51.432;5.482;2023-09-12T03:02:11;57.10;;;22.58;;
53833;SDS011;39735;51.432;5.482;2023-09-12T03:04:37;28.07;;;19.17;;
53833;SDS011;39735;51.432;5.482;2023-09-12T03:07:02;44.17;;;20.13;;
53833;SDS011;39735;51.432;5.482;2023-09-12T03:09:27;42.15;;;21.58;;
53833;SDS011;39735;51.432;5.482;2023-09-12T03:11:52;37.00;;;20.87;;
53833;SDS011;39735;51.432;5.482;2023-09-12T03:14:18;41.87;;;20.20;;
53833;SDS011;39735;51.432;5.482;2023-09-12T03:16:43;44.47;;;24.07;;
53833;SDS011;39735;51.432;5.482;2023-09-12T03:19:08;30.33;;;21.05;;
53833;SDS011;39735;51.432;5.482;2023-09-12T03:21:33;34.23;;;20.67;;
53833;SDS011;39735;51.432;5.482;2023-09-12T03:23:58;33.37;;;19.10;;
53833;SDS011;39735;51.432;5.482;2023-09-12T03:26:24;44.20;;;20.13;;
53833;SDS011;39735;51.432;5.482;2023-09-12T03:28:49;39.95;;;20.42;;
53833;SDS011;39735;51.432;5.482;2023-09-12T03:31:15;29.83;;;18.90;;
53833;SDS011;39735;51.432;5.482;2023-09-12T03:33:41;46.33;;;20.05;;
53833;SDS011;39735;51.432;5.482;2023-09-12T03:36:07;31.00;;;19.52;;
53833;SDS011;39735;51.432;5.482;2023-09-12T03:38:32;46.95;;;20.77;;
53833;SDS011;39735;51.432;5.482;2023-09-12T03:40:58;46.00;;;22.85;;
53833;SDS011;39735;51.432;5.482;2023-09-12T03:43:23;27.97;;;20.03;;
53833;SDS011;39735;51.432;5.482;2023-09-12T03:45:48;59.63;;;21.75;;
53833;SDS011;39735;51.432;5.482;2023-09-12T03:48:14;41.00;;;20.10;;
53833;SDS011;39735;51.432;5.482;2023-09-12T03:50:39;30.60;;;19.83;;
53833;SDS011;39735;51.432;5.482;2023-09-12T03:53:04;40.70;;;22.17;;
53833;SDS011;39735;51.432;5.482;2023-09-12T03:55:30;32.75;;;20.67;;
53833;SDS011;39735;51.432;5.482;2023-09-12T03:57:55;47.33;;;20.10;;
53833;SDS011;39735;51.432;5.482;2023-09-12T04:00:20;28.30;;;20.17;;
53833;SDS011;39735;51.432;5.482;2023-09-12T04:02:45;26.17;;;20.03;;
53833;SDS011;39735;51.432;5.482;2023-09-12T04:05:11;42.70;;;22.17;;
53833;SDS011;39735;51.432;5.482;2023-09-12T04:07:36;29.60;;;20.83;;
53833;SDS011;39735;51.432;5.482;2023-09-12T04:10:01;46.50;;;21.17;;
53833;SDS011;39735;51.432;5.482;2023-09-12T04:12:26;44.17;;;21.20;;
53833;SDS011;39735;51.432;5.482;2023-09-12T04:14:51;61.53;;;23.60;;
53833;SDS011;39735;51.432;5.482;2023-09-12T04:17:17;45.70;;;22.48;;
53833;SDS011;39735;51.432;5.482;2023-09-12T04:19:42;45.33;;;23.30;;
53833;SDS011;39735;51.432;5.482;2023-09-12T04:22:07;34.03;;;20.50;;
53833;SDS011;39735;51.432;5.482;2023-09-12T04:24:33;41.70;;;20.95;;
53833;SDS011;39735;51.432;5.482;2023-09-12T04:26:58;35.00;;;22.48;;
53833;SDS011;39735;51.432;5.482;2023-09-12T04:29:23;40.07;;;21.93;;
53833;SDS011;39735;51.432;5.482;2023-09-12T04:31:48;31.90;;;22.30;;
53833;SDS011;39735;51.432;5.482;2023-09-12T04:34:15;31.60;;;24.45;;
53833;SDS011;39735;51.432;5.482;2023-09-12T04:36:40;37.97;;;23.60;;
53833;SDS011;39735;51.432;5.482;2023-09-12T04:39:05;39.23;;;24.80;;
53833;SDS011;39735;51.432;5.482;2023-09-12T04:41:30;53.22;;;28.23;;
53833;SDS011;39735;51.432;5.482;2023-09-12T04:43:56;37.03;;;25.07;;
53833;SDS011;39735;51.432;5.482;2023-09-12T04:46:22;33.58;;;25.02;;
53833;SDS011;39735;51.432;5.482;2023-09-12T04:48:47;58.92;;;26.48;;
53833;SDS011;39735;51.432;5.482;2023-09-12T04:51:12;83.43;;;25.83;;
53833;SDS011;39735;51.432;5.482;2023-09-12T04:53:37;36.75;;;23.02;;
53833;SDS011;39735;51.432;5.482;2023-09-12T04:56:03;60.60;;;26.15;;
53833;SDS011;39735;51.432;5.482;2023-09-12T04:58:29;45.00;;;25.33;;
53833;SDS011;39735;51.432;5.482;2023-09-12T05:00:54;53.70;;;30.42;;
53833;SDS011;39735;51.432;5.482;2023-09-12T05:03:20;40.78;;;24.08;;
53833;SDS011;39735;51.432;5.482;2023-09-12T05:05:46;38.07;;;26.60;;
53833;SDS011;39735;51.432;5.482;2023-09-12T05:08:12;40.83;;;26.33;;
53833;SDS011;39735;51.432;5.482;2023-09-12T05:10:37;37.90;;;25.50;;
53833;SDS011;39735;51.432;5.482;2023-09-12T05:13:03;70.80;;;28.83;;
53833;SDS011;39735;51.432;5.482;2023-09-12T05:15:29;37.88;;;26.40;;
53833;SDS011;39735;51.432;5.482;2023-09-12T05:17:54;37.33;;;25.53;;
53833;SDS011;39735;51.432;5.482;2023-09-12T05:20:19;41.30;;;23.97;;
53833;SDS011;39735;51.432;5.482;2023-09-12T05:22:44;41.87;;;24.70;;
53833;SDS011;39735;51.432;5.482;2023-09-12T05:25:09;49.07;;;25.70;;
53833;SDS011;39735;51.432;5.482;2023-09-12T05:27:35;38.95;;;23.02;;
53833;SDS011;39735;51.432;5.482;2023-09-12T05:30:00;61.73;;;24.33;;
53833;SDS011;39735;51.432;5.482;2023-09-12T05:32:25;54.10;;;26.67;;
53833;SDS011;39735;51.432;5.482;2023-09-12T05:34:50;41.53;;;22.90;;
53833;SDS011;39735;51.432;5.482;2023-09-12T05:37:16;47.08;;;25.23;;
53833;SDS011;39735;51.432;5.482;2023-09-12T05:39:41;48.30;;;26.27;;
53833;SDS011;39735;51.432;5.482;2023-09-12T05:42:07;41.67;;;24.33;;
53833;SDS011;39735;51.432;5.482;2023-09-12T05:44:35;41.23;;;25.30;;
53833;SDS011;39735;51.432;5.482;2023-09-12T05:47:00;54.22;;;24.67;;
53833;SDS011;39735;51.432;5.482;2023-09-12T05:49:25;53.05;;;25.75;;
53833;SDS011;39735;51.432;5.482;2023-09-12T05:51:50;42.53;;;25.00;;
53833;SDS011;39735;51.432;5.482;2023-09-12T05:54:16;45.00;;;26.20;;
53833;SDS011;39735;51.432;5.482;2023-09-12T05:56:41;46.92;;;26.17;;
53833;SDS011;39735;51.432;5.482;2023-09-12T05:59:06;37.25;;;24.85;;
53833;SDS011;39735;51.432;5.482;2023-09-12T06:01:31;47.03;;;25.65;;
53833;SDS011;39735;51.432;5.482;2023-09-12T06:03:57;44.90;;;26.90;;
53833;SDS011;39735;51.432;5.482;2023-09-12T06:06:22;55.00;;;24.98;;
53833;SDS011;39735;51.432;5.482;2023-09-12T06:08:47;43.03;;;24.55;;
53833;SDS011;39735;51.432;5.482;2023-09-12T06:11:13;41.80;;;26.42;;
53833;SDS011;39735;51.432;5.482;2023-09-12T06:13:38;42.63;;;26.23;;
53833;SDS011;39735;51.432;5.482;2023-09-12T06:16:04;45.57;;;23.67;;
53833;SDS011;39735;51.432;5.482;2023-09-12T06:18:30;43.05;;;24.38;;
53833;SDS011;39735;51.432;5.482;2023-09-12T06:20:57;83.72;;;28.95;;
53833;SDS011;39735;51.432;5.482;2023-09-12T06:23:22;215.75;;;48.03;;
53833;SDS011;39735;51.432;5.482;2023-09-12T06:25:47;226.17;;;47.97;;
53833;SDS011;39735;51.432;5.482;2023-09-12T06:28:12;143.23;;;39.70;;
53833;SDS011;39735;51.432;5.482;2023-09-12T06:30:49;117.45;;;32.42;;
53833;SDS011;39735;51.432;5.482;2023-09-12T06:33:14;79.43;;;32.80;;
53833;SDS011;39735;51.432;5.482;2023-09-12T06:35:39;59.93;;;28.67;;
53833;SDS011;39735;51.432;5.482;2023-09-12T06:38:04;63.80;;;26.83;;
53833;SDS011;39735;51.432;5.482;2023-09-12T06:40:29;47.63;;;26.53;;
53833;SDS011;39735;51.432;5.482;2023-09-12T06:42:55;56.15;;;29.80;;
53833;SDS011;39735;51.432;5.482;2023-09-12T06:45:20;44.75;;;27.42;;
53833;SDS011;39735;51.432;5.482;2023-09-12T06:47:45;61.23;;;30.27;;
53833;SDS011;39735;51.432;5.482;2023-09-12T06:50:10;54.37;;;27.43;;
53833;SDS011;39735;51.432;5.482;2023-09-12T06:52:36;77.18;;;28.92;;
53833;SDS011;39735;51.432;5.482;2023-09-12T06:55:01;48.83;;;29.20;;
53833;SDS011;39735;51.432;5.482;2023-09-12T06:57:26;50.47;;;31.13;;
53833;SDS011;39735;51.432;5.482;2023-09-12T06:59:51;63.17;;;29.83;;
53833;SDS011;39735;51.432;5.482;2023-09-12T07:02:17;45.70;;;29.77;;
53833;SDS011;39735;51.432;5.482;2023-09-12T07:04:43;70.75;;;29.55;;
53833;SDS011;39735;51.432;5.482;2023-09-12T07:07:08;54.90;;;27.58;;
53833;SDS011;39735;51.432;5.482;2023-09-12T07:09:33;40.33;;;27.47;;
53833;SDS011;39735;51.432;5.482;2023-09-12T07:11:59;51.70;;;30.63;;
53833;SDS011;39735;51.432;5.482;2023-09-12T07:14:24;52.38;;;27.48;;
53833;SDS011;39735;51.432;5.482;2023-09-12T07:16:50;47.10;;;26.52;;
53833;SDS011;39735;51.432;5.482;2023-09-12T07:19:15;38.28;;;27.52;;
53833;SDS011;39735;51.432;5.482;2023-09-12T07:21:41;52.28;;;27.95;;
53833;SDS011;39735;51.432;5.482;2023-09-12T07:24:06;50.63;;;29.37;;
53833;SDS011;39735;51.432;5.482;2023-09-12T07:26:32;55.08;;;28.15;;
53833;SDS011;39735;51.432;5.482;2023-09-12T07:28:57;36.58;;;27.15;;
53833;SDS011;39735;51.432;5.482;2023-09-12T07:31:23;51.70;;;29.60;;
53833;SDS011;39735;51.432;5.482;2023-09-12T07:33:48;48.67;;;26.85;;
53833;SDS011;39735;51.432;5.482;2023-09-12T07:36:13;55.30;;;27.73;;
53833;SDS011;39735;51.432;5.482;2023-09-12T07:38:39;44.42;;;26.00;;
53833;SDS011;39735;51.432;5.482;2023-09-12T07:41:04;44.20;;;25.35;;
53833;SDS011;39735;51.432;5.482;2023-09-12T07:43:29;58.50;;;25.55;;
53833;SDS011;39735;51.432;5.482;2023-09-12T07:45:58;39.40;;;24.27;;
53833;SDS011;39735;51.432;5.482;2023-09-12T07:48:23;39.83;;;24.23;;
53833;SDS011;39735;51.432;5.482;2023-09-12T07:50:48;36.28;;;22.38;;
53833;SDS011;39735;51.432;5.482;2023-09-12T07:53:14;32.22;;;21.27;;
53833;SDS011;39735;51.432;5.482;2023-09-12T07:55:39;31.95;;;23.08;;
53833;SDS011;39735;51.432;5.482;2023-09-12T07:58:11;32.30;;;20.30;;
53833;SDS011;39735;51.432;5.482;2023-09-12T08:00:36;47.17;;;24.08;;
53833;SDS011;39735;51.432;5.482;2023-09-12T08:03:02;40.40;;;19.00;;
53833;SDS011;39735;51.432;5.482;2023-09-12T08:05:27;37.80;;;21.23;;
53833;SDS011;39735;51.432;5.482;2023-09-12T08:07:52;55.10;;;24.10;;
53833;SDS011;39735;51.432;5.482;2023-09-12T08:10:17;40.50;;;21.80;;
53833;SDS011;39735;51.432;5.482;2023-09-12T08:12:43;34.58;;;20.35;;
53833;SDS011;39735;51.432;5.482;2023-09-12T08:15:08;36.47;;;21.80;;
53833;SDS011;39735;51.432;5.482;2023-09-12T08:17:33;36.58;;;22.42;;
53833;SDS011;39735;51.432;5.482;2023-09-12T08:19:59;40.15;;;20.42;;
53833;SDS011;39735;51.432;5.482;2023-09-12T08:22:24;27.55;;;18.33;;
53833;SDS011;39735;51.432;5.482;2023-09-12T08:24:49;33.88;;;19.73;;
53833;SDS011;39735;51.432;5.482;2023-09-12T08:27:15;37.10;;;18.42;;
53833;SDS011;39735;51.432;5.482;2023-09-12T08:29:40;25.05;;;14.52;;
53833;SDS011;39735;51.432;5.482;2023-09-12T08:32:07;27.83;;;15.88;;
53833;SDS011;39735;51.432;5.482;2023-09-12T08:34:32;28.97;;;14.47;;
53833;SDS011;39735;51.432;5.482;2023-09-12T08:36:57;20.50;;;15.52;;
53833;SDS011;39735;51.432;5.482;2023-09-12T08:39:23;43.97;;;16.57;;
53833;SDS011;39735;51.432;5.482;2023-09-12T08:41:49;25.85;;;14.98;;
53833;SDS011;39735;51.432;5.482;2023-09-12T08:44:14;31.20;;;17.70;;
53833;SDS011;39735;51.432;5.482;2023-09-12T08:46:41;44.40;;;18.25;;
53833;SDS011;39735;51.432;5.482;2023-09-12T08:49:06;19.02;;;15.52;;
53833;SDS011;39735;51.432;5.482;2023-09-12T08:51:32;32.72;;;14.98;;
53833;SDS011;39735;51.432;5.482;2023-09-12T08:53:57;29.05;;;13.75;;
53833;SDS011;39735;51.432;5.482;2023-09-12T08:56:22;21.83;;;14.03;;
53833;SDS011;39735;51.432;5.482;2023-09-12T08:58:49;20.17;;;14.95;;
53833;SDS011;39735;51.432;5.482;2023-09-12T09:01:14;22.85;;;11.43;;
53833;SDS011;39735;51.432;5.482;2023-09-12T09:03:41;33.08;;;10.15;;
53833;SDS011;39735;51.432;5.482;2023-09-12T09:06:08;22.67;;;10.52;;
53833;SDS011;39735;51.432;5.482;2023-09-12T09:08:33;18.95;;;11.63;;
53833;SDS011;39735;51.432;5.482;2023-09-12T09:11:00;17.00;;;9.13;;
53833;SDS011;39735;51.432;5.482;2023-09-12T09:13:30;17.48;;;9.27;;
53833;SDS011;39735;51.432;5.482;2023-09-12T09:16:17;25.23;;;9.02;;
53833;SDS011;39735;51.432;5.482;2023-09-12T09:19:01;30.30;;;10.07;;
53833;SDS011;39735;51.432;5.482;2023-09-12T09:21:28;10.48;;;8.80;;
53833;SDS011;39735;51.432;5.482;2023-09-12T09:23:55;14.65;;;8.68;;
53833;SDS011;39735;51.432;5.482;2023-09-12T09:26:21;12.93;;;7.13;;
53833;SDS011;39735;51.432;5.482;2023-09-12T09:29:01;19.98;;;9.40;;
53833;SDS011;39735;51.432;5.482;2023-09-12T09:31:27;23.77;;;9.20;;
53833;SDS011;39735;51.432;5.482;2023-09-12T09:33:53;31.23;;;10.98;;
53833;SDS011;39735;51.432;5.482;2023-09-12T09:36:18;29.77;;;12.15;;
53833;SDS011;39735;51.432;5.482;2023-09-12T09:38:45;24.45;;;9.77;;
53833;SDS011;39735;51.432;5.482;2023-09-12T09:41:11;17.05;;;9.32;;
53833;SDS011;39735;51.432;5.482;2023-09-12T09:43:36;22.03;;;10.40;;
53833;SDS011;39735;51.432;5.482;2023-09-12T09:46:02;29.95;;;9.60;;
53833;SDS011;39735;51.432;5.482;2023-09-12T09:48:28;20.60;;;10.20;;
53833;SDS011;39735;51.432;5.482;2023-09-12T09:50:59;21.55;;;10.63;;
53833;SDS011;39735;51.432;5.482;2023-09-12T09:53:28;28.63;;;11.88;;
53833;SDS011;39735;51.432;5.482;2023-09-12T09:58:53;23.77;;;12.55;;
53833;SDS011;39735;51.432;5.482;2023-09-12T10:01:19;19.45;;;11.80;;
53833;SDS011;39735;51.432;5.482;2023-09-12T10:03:48;26.13;;;14.25;;
53833;SDS011;39735;51.432;5.482;2023-09-12T10:06:15;37.08;;;15.20;;
53833;SDS011;39735;51.432;5.482;2023-09-12T10:08:40;25.20;;;14.20;;
53833;SDS011;39735;51.432;5.482;2023-09-12T10:11:05;37.05;;;13.73;;
53833;SDS011;39735;51.432;5.482;2023-09-12T10:13:32;29.08;;;14.15;;
53833;SDS011;39735;51.432;5.482;2023-09-12T10:15:58;29.63;;;15.77;;
53833;SDS011;39735;51.432;5.482;2023-09-12T10:18:25;30.98;;;14.68;;
53833;SDS011;39735;51.432;5.482;2023-09-12T10:20:55;27.05;;;16.00;;
53833;SDS011;39735;51.432;5.482;2023-09-12T10:23:37;33.35;;;15.05;;
53833;SDS011;39735;51.432;5.482;2023-09-12T10:28:31;23.00;;;12.15;;
53833;SDS011;39735;51.432;5.482;2023-09-12T10:30:57;20.60;;;11.88;;
53833;SDS011;39735;51.432;5.482;2023-09-12T10:33:22;16.27;;;10.52;;
53833;SDS011;39735;51.432;5.482;2023-09-12T10:35:48;31.73;;;13.73;;
53833;SDS011;39735;51.432;5.482;2023-09-12T10:38:15;37.88;;;14.57;;
53833;SDS011;39735;51.432;5.482;2023-09-12T10:40:41;31.05;;;13.45;;
53833;SDS011;39735;51.432;5.482;2023-09-12T10:43:07;31.27;;;14.15;;
53833;SDS011;39735;51.432;5.482;2023-09-12T10:45:35;35.78;;;13.50;;
53833;SDS011;39735;51.432;5.482;2023-09-12T10:48:00;35.88;;;14.75;;
53833;SDS011;39735;51.432;5.482;2023-09-12T10:50:25;22.05;;;15.82;;
53833;SDS011;39735;51.432;5.482;2023-09-12T10:52:51;27.98;;;17.90;;
53833;SDS011;39735;51.432;5.482;2023-09-12T10:55:17;34.30;;;18.15;;
53833;SDS011;39735;51.432;5.482;2023-09-12T10:58:04;35.53;;;15.50;;
53833;SDS011;39735;51.432;5.482;2023-09-12T11:00:30;30.15;;;15.27;;
53833;SDS011;39735;51.432;5.482;2023-09-12T11:02:57;31.75;;;13.45;;
53833;SDS011;39735;51.432;5.482;2023-09-12T11:07:58;25.25;;;13.25;;
53833;SDS011;39735;51.432;5.482;2023-09-12T11:10:23;24.63;;;14.65;;
53833;SDS011;39735;51.432;5.482;2023-09-12T11:12:50;26.40;;;16.08;;
53833;SDS011;39735;51.432;5.482;2023-09-12T11:15:15;33.92;;;16.95;;
53833;SDS011;39735;51.432;5.482;2023-09-12T11:17:42;32.00;;;16.92;;
53833;SDS011;39735;51.432;5.482;2023-09-12T11:20:08;33.80;;;16.88;;
53833;SDS011;39735;51.432;5.482;2023-09-12T11:22:36;32.47;;;14.50;;
53833;SDS011;39735;51.432;5.482;2023-09-12T11:25:02;29.42;;;15.73;;
53833;SDS011;39735;51.432;5.482;2023-09-12T11:27:31;25.20;;;16.42;;
53833;SDS011;39735;51.432;5.482;2023-09-12T11:30:03;30.30;;;17.48;;
53833;SDS011;39735;51.432;5.482;2023-09-12T11:32:32;30.05;;;16.88;;
53833;SDS011;39735;51.432;5.482;2023-09-12T11:34:58;40.35;;;18.50;;
53833;SDS011;39735;51.432;5.482;2023-09-12T11:37:26;42.00;;;17.95;;
53833;SDS011;39735;51.432;5.482;2023-09-12T11:39:53;30.13;;;17.38;;
53833;SDS011;39735;51.432;5.482;2023-09-12T11:42:18;32.58;;;16.85;;
53833;SDS011;39735;51.432;5.482;2023-09-12T11:44:44;30.60;;;17.77;;
53833;SDS011;39735;51.432;5.482;2023-09-12T11:47:12;29.17;;;18.02;;
53833;SDS011;39735;51.432;5.482;2023-09-12T11:49:38;34.97;;;18.35;;
53833;SDS011;39735;51.432;5.482;2023-09-12T11:52:08;26.70;;;17.05;;
53833;SDS011;39735;51.432;5.482;2023-09-12T11:54:33;38.28;;;19.65;;
53833;SDS011;39735;51.432;5.482;2023-09-12T11:56:58;32.33;;;18.10;;
53833;SDS011;39735;51.432;5.482;2023-09-12T11:59:28;34.53;;;18.55;;
53833;SDS011;39735;51.432;5.482;2023-09-12T12:01:54;43.03;;;17.30;;
53833;SDS011;39735;51.432;5.482;2023-09-12T12:04:23;29.15;;;17.73;;
53833;SDS011;39735;51.432;5.482;2023-09-12T12:06:49;26.90;;;14.68;;
53833;SDS011;39735;51.432;5.482;2023-09-12T12:09:15;29.33;;;16.60;;
53833;SDS011;39735;51.432;5.482;2023-09-12T12:11:43;29.13;;;15.05;;
53833;SDS011;39735;51.432;5.482;2023-09-12T12:14:10;14.68;;;12.60;;
53833;SDS011;39735;51.432;5.482;2023-09-12T12:16:35;35.05;;;14.93;;
53833;SDS011;39735;51.432;5.482;2023-09-12T12:19:00;24.00;;;11.80;;
53833;SDS011;39735;51.432;5.482;2023-09-12T12:21:25;21.67;;;11.53;;
53833;SDS011;39735;51.432;5.482;2023-09-12T12:24:02;18.08;;;10.68;;
53833;SDS011;39735;51.432;5.482;2023-09-12T12:26:28;14.90;;;10.23;;
53833;SDS011;39735;51.432;5.482;2023-09-12T12:28:53;14.43;;;10.27;;
53833;SDS011;39735;51.432;5.482;2023-09-12T12:31:22;23.90;;;10.67;;
53833;SDS011;39735;51.432;5.482;2023-09-12T12:33:49;16.15;;;11.05;;
53833;SDS011;39735;51.432;5.482;2023-09-12T12:36:14;20.90;;;12.68;;
53833;SDS011;39735;51.432;5.482;2023-09-12T12:38:40;21.75;;;12.32;;
53833;SDS011;39735;51.432;5.482;2023-09-12T12:41:08;16.77;;;12.05;;
53833;SDS011;39735;51.432;5.482;2023-09-12T12:43:33;22.92;;;11.48;;
53833;SDS011;39735;51.432;5.482;2023-09-12T12:45:58;32.43;;;10.60;;
53833;SDS011;39735;51.432;5.482;2023-09-12T12:48:30;15.20;;;11.40;;
53833;SDS011;39735;51.432;5.482;2023-09-12T12:50:56;28.00;;;12.05;;
53833;SDS011;39735;51.432;5.482;2023-09-12T12:53:36;21.70;;;12.68;;
53833;SDS011;39735;51.432;5.482;2023-09-12T12:56:01;18.42;;;10.90;;
53833;SDS011;39735;51.432;5.482;2023-09-12T12:58:27;17.90;;;11.43;;
53833;SDS011;39735;51.432;5.482;2023-09-12T13:00:52;27.70;;;13.80;;
53833;SDS011;39735;51.432;5.482;2023-09-12T13:03:17;24.83;;;12.60;;
53833;SDS011;39735;51.432;5.482;2023-09-12T13:05:43;20.97;;;12.53;;
53833;SDS011;39735;51.432;5.482;2023-09-12T13:08:08;20.43;;;13.60;;
53833;SDS011;39735;51.432;5.482;2023-09-12T13:10:33;23.63;;;13.33;;
53833;SDS011;39735;51.432;5.482;2023-09-12T13:12:58;22.85;;;11.10;;
53833;SDS011;39735;51.432;5.482;2023-09-12T13:15:24;16.07;;;11.37;;
53833;SDS011;39735;51.432;5.482;2023-09-12T13:17:49;32.83;;;12.87;;
53833;SDS011;39735;51.432;5.482;2023-09-12T13:20:14;39.80;;;15.60;;
53833;SDS011;39735;51.432;5.482;2023-09-12T13:22:39;25.67;;;14.53;;
53833;SDS011;39735;51.432;5.482;2023-09-12T13:25:05;24.02;;;15.05;;
53833;SDS011;39735;51.432;5.482;2023-09-12T13:27:31;22.65;;;13.88;;
53833;SDS011;39735;51.432;5.482;2023-09-12T13:29:56;20.08;;;12.25;;
53833;SDS011;39735;51.432;5.482;2023-09-12T13:32:21;32.00;;;15.43;;
53833;SDS011;39735;51.432;5.482;2023-09-12T13:34:46;22.33;;;12.93;;
53833;SDS011;39735;51.432;5.482;2023-09-12T13:37:12;22.47;;;12.67;;
53833;SDS011;39735;51.432;5.482;2023-09-12T13:39:37;14.32;;;12.23;;
53833;SDS011;39735;51.432;5.482;2023-09-12T13:42:02;20.70;;;11.60;;
53833;SDS011;39735;51.432;5.482;2023-09-12T13:44:29;22.65;;;11.98;;
53833;SDS011;39735;51.432;5.482;2023-09-12T13:46:54;11.30;;;9.18;;
53833;SDS011;39735;51.432;5.482;2023-09-12T13:49:19;13.33;;;9.73;;
53833;SDS011;39735;51.432;5.482;2023-09-12T13:51:45;21.02;;;11.13;;
53833;SDS011;39735;51.432;5.482;2023-09-12T13:54:10;22.30;;;11.85;;
53833;SDS011;39735;51.432;5.482;2023-09-12T13:56:40;18.63;;;12.02;;
53833;SDS011;39735;51.432;5.482;2023-09-12T13:59:05;29.92;;;11.73;;
53833;SDS011;39735;51.432;5.482;2023-09-12T14:01:31;27.38;;;12.25;;
53833;SDS011;39735;51.432;5.482;2023-09-12T14:03:56;28.17;;;11.00;;
53833;SDS011;39735;51.432;5.482;2023-09-12T14:06:21;17.10;;;12.30;;
53833;SDS011;39735;51.432;5.482;2023-09-12T14:08:46;14.07;;;10.07;;
53833;SDS011;39735;51.432;5.482;2023-09-12T14:11:12;23.47;;;9.33;;
53833;SDS011;39735;51.432;5.482;2023-09-12T14:13:37;24.85;;;10.73;;
53833;SDS011;39735;51.432;5.482;2023-09-12T14:16:02;28.13;;;15.87;;
53833;SDS011;39735;51.432;5.482;2023-09-12T14:18:27;22.83;;;14.30;;
53833;SDS011;39735;51.432;5.482;2023-09-12T14:20:53;22.53;;;13.67;;
53833;SDS011;39735;51.432;5.482;2023-09-12T14:23:18;17.60;;;14.63;;
53833;SDS011;39735;51.432;5.482;2023-09-12T14:25:43;32.03;;;13.90;;